Terminal Aerodrome Forecast
Issued by NWS North Platte, NE

Home | Current Version | Previous Version | Text Only | Print | Product List | Glossary On
Versions: 1 2 3 4 5 6 7 8 9 10 11 12 13
000
FTUS43 KLBF 302300
TAFLBF
TAF
KLBF 302324Z 3100/3124 01010KT P6SM SKC
     FM310600 04008KT P6SM OVC020
     FM310900 05006KT P6SM OVC015
     FM311200 09005KT P6SM OVC007
     FM311500 10006KT P6SM OVC012
     FM311800 14007KT P6SM SKC=

USA.gov is the U.S. government's official web portal to all federal, state and local government web resources and services.